createdAt,value
2022-12-01T00:00:55.553Z,969.0300
2022-12-01T00:01:57.950Z,969.0300
2022-12-01T00:03:00.272Z,969.0100
2022-12-01T00:03:36.662Z,969.0100
2022-12-01T00:04:38.963Z,968.9900
2022-12-01T00:05:41.256Z,968.9900
2022-12-01T00:06:43.564Z,968.9900
2022-12-01T00:07:43.773Z,968.9500
2022-12-01T00:08:46.054Z,968.9500
2022-12-01T00:09:48.619Z,968.9900
2022-12-01T00:10:50.612Z,968.9500
2022-12-01T00:11:52.858Z,968.9700
2022-12-01T00:12:55.147Z,968.9500
2022-12-01T00:13:57.448Z,968.9500
2022-12-01T00:14:57.538Z,968.9500
2022-12-01T00:15:59.828Z,968.9300
2022-12-01T00:17:02.029Z,968.9500
2022-12-01T00:18:04.294Z,968.9500
2022-12-01T00:19:06.703Z,968.9500
2022-12-01T00:20:08.873Z,968.9700
2022-12-01T00:21:11.162Z,968.9500
2022-12-01T00:22:13.412Z,968.9300
2022-12-01T00:23:13.552Z,968.9100
2022-12-01T00:24:15.880Z,968.9300
2022-12-01T00:25:18.171Z,968.9100
2022-12-01T00:26:20.482Z,968.9100
2022-12-01T00:27:22.798Z,968.9300
2022-12-01T00:28:25.113Z,968.9300
2022-12-01T00:29:27.487Z,968.9300
2022-12-01T00:30:27.584Z,968.9100
2022-12-01T00:31:29.873Z,968.8900
2022-12-01T00:32:32.052Z,968.9100
2022-12-01T00:33:34.325Z,968.8900
2022-12-01T00:34:36.664Z,968.8900
2022-12-01T00:35:38.958Z,968.9300
2022-12-01T00:36:41.299Z,968.8700
2022-12-01T00:37:43.625Z,968.8900
2022-12-01T00:38:45.944Z,968.8700
2022-12-01T00:39:48.627Z,968.8500
2022-12-01T00:40:50.601Z,968.8700
2022-12-01T00:42:40.275Z,968.9100
2022-12-01T00:43:42.480Z,968.9100
2022-12-01T00:44:44.679Z,968.8900
2022-12-01T00:45:47.088Z,968.8900
2022-12-01T00:46:49.242Z,968.8900
2022-12-01T00:47:51.560Z,968.8500
2022-12-01T00:48:53.854Z,968.8700
2022-12-01T00:49:54.000Z,968.8500
2022-12-01T00:50:56.306Z,968.8500
2022-12-01T00:51:58.514Z,968.8700
2022-12-01T00:53:00.811Z,968.8500
2022-12-01T00:54:03.118Z,968.8700
2022-12-01T00:55:05.325Z,968.8700
2022-12-01T00:56:07.577Z,968.8700
2022-12-01T00:57:09.703Z,968.8700
2022-12-01T00:58:11.908Z,968.9100
2022-12-01T00:59:14.140Z,968.9100
2022-12-01T01:00:16.385Z,968.9100
2022-12-01T01:01:16.592Z,968.9300
2022-12-01T01:02:18.854Z,968.9100
2022-12-01T01:03:21.059Z,968.9300
2022-12-01T01:04:23.384Z,968.9300
2022-12-01T01:05:25.675Z,968.9100
2022-12-01T01:06:28.027Z,968.9100
2022-12-01T01:07:30.381Z,968.9100
2022-12-01T01:08:30.495Z,968.9100
2022-12-01T01:09:32.817Z,968.9100
2022-12-01T01:10:35.155Z,968.9500
2022-12-01T01:11:37.512Z,968.9500
2022-12-01T01:12:39.816Z,968.9500
2022-12-01T01:13:39.996Z,968.9900
2022-12-01T01:14:42.336Z,968.9300
2022-12-01T01:15:44.665Z,968.9500
2022-12-01T01:16:47.220Z,968.9700
2022-12-01T01:17:49.231Z,968.9500
2022-12-01T01:18:49.367Z,968.9500
2022-12-01T01:19:51.703Z,968.9900
2022-12-01T01:20:54.053Z,968.9900
2022-12-01T01:21:56.433Z,969.0300
2022-12-01T01:22:58.743Z,969.0300
2022-12-01T01:24:01.070Z,969.0300
2022-12-01T01:25:01.259Z,969.0300
2022-12-01T01:26:03.569Z,969.0300
2022-12-01T01:27:05.935Z,969.0500
2022-12-01T01:28:08.222Z,969.0500
2022-12-01T01:29:10.558Z,969.0500
2022-12-01T01:30:10.727Z,969.0500
2022-12-01T01:31:13.162Z,969.0700
2022-12-01T01:32:15.479Z,969.0700
2022-12-01T01:33:17.760Z,969.0900
2022-12-01T01:34:20.056Z,969.0900
2022-12-01T01:35:22.391Z,969.1100
2022-12-01T01:36:22.621Z,969.1300
2022-12-01T01:37:24.982Z,969.1300
2022-12-01T01:38:27.290Z,969.1300
2022-12-01T01:39:29.649Z,969.1100
2022-12-01T01:40:31.985Z,969.0900
2022-12-01T01:41:32.167Z,969.1100
2022-12-01T01:42:32.374Z,969.1100
2022-12-01T01:43:34.676Z,969.0700
2022-12-01T01:44:37.006Z,969.0700
2022-12-01T01:45:39.391Z,969.0700
2022-12-01T01:46:41.623Z,969.0500
2022-12-01T01:47:41.873Z,969.0500
2022-12-01T01:48:44.129Z,969.0500
2022-12-01T01:49:47.010Z,969.0500
2022-12-01T01:50:48.784Z,969.0100
2022-12-01T01:51:51.134Z,968.9900
2022-12-01T01:52:53.552Z,968.9900
2022-12-01T01:53:55.754Z,968.9900
2022-12-01T01:54:58.055Z,968.9900
2022-12-01T01:56:00.372Z,968.9900
2022-12-01T01:57:02.680Z,969.0100
2022-12-01T01:58:02.836Z,968.9900
2022-12-01T01:59:05.040Z,969.0100
2022-12-01T02:00:07.289Z,969.0100
2022-12-01T02:01:09.571Z,968.9700
2022-12-01T02:02:11.776Z,968.9900
2022-12-01T02:03:13.967Z,968.9900
2022-12-01T02:04:16.161Z,969.0100
2022-12-01T02:05:18.433Z,968.9900
2022-12-01T02:06:20.702Z,968.9900
2022-12-01T02:07:23.034Z,968.9900
2022-12-01T02:08:25.247Z,968.9700
2022-12-01T02:09:25.344Z,968.9900
2022-12-01T02:10:27.580Z,968.9700
2022-12-01T02:11:29.825Z,968.9700
2022-12-01T02:12:32.115Z,968.9700
2022-12-01T02:13:34.509Z,968.9700
2022-12-01T02:14:36.662Z,968.9500
2022-12-01T02:15:38.938Z,968.9700
2022-12-01T02:16:41.264Z,968.9500
2022-12-01T02:17:41.990Z,968.9500
2022-12-01T02:18:43.812Z,968.9500
2022-12-01T02:19:46.041Z,968.9500
2022-12-01T02:20:48.108Z,968.8900
2022-12-01T02:21:50.353Z,968.8900
2022-12-01T02:22:54.003Z,968.9500
2022-12-01T02:23:52.745Z,968.9300
2022-12-01T02:24:54.977Z,968.9300
2022-12-01T02:25:55.025Z,968.9100
2022-12-01T02:26:57.253Z,968.9300
2022-12-01T02:27:59.459Z,968.9300
2022-12-01T02:29:01.758Z,968.9300
2022-12-01T02:30:03.987Z,968.9300
2022-12-01T02:31:06.375Z,968.9100
2022-12-01T02:32:08.555Z,968.8900
2022-12-01T02:33:08.693Z,968.8700
2022-12-01T02:34:11.029Z,968.8700
2022-12-01T02:35:13.239Z,968.8900
2022-12-01T02:36:15.509Z,968.8500
2022-12-01T02:37:17.751Z,968.8700
2022-12-01T02:38:19.985Z,968.8500
2022-12-01T02:39:22.267Z,968.8500
2022-12-01T02:40:24.514Z,968.8300
2022-12-01T02:41:26.788Z,968.8500
2022-12-01T02:42:26.876Z,968.8100
2022-12-01T02:43:29.124Z,968.8300
2022-12-01T02:44:31.401Z,968.8300
2022-12-01T02:45:33.704Z,968.8300
2022-12-01T02:46:36.063Z,968.8100
2022-12-01T02:47:38.330Z,968.8100
2022-12-01T02:48:40.603Z,968.8300
2022-12-01T02:49:40.948Z,968.8500
2022-12-01T02:50:43.160Z,968.8300
2022-12-01T02:51:45.511Z,968.8300
2022-12-01T02:52:47.857Z,968.8100
2022-12-01T02:53:50.245Z,968.8100
2022-12-01T02:54:50.446Z,968.8500
2022-12-01T02:55:52.720Z,968.8300
2022-12-01T02:56:55.027Z,968.8100
2022-12-01T02:57:57.346Z,968.8300
2022-12-01T02:58:59.655Z,968.8300
2022-12-01T03:00:02.023Z,968.8500
2022-12-01T03:01:02.276Z,968.8300
2022-12-01T03:02:04.477Z,968.8100
2022-12-01T03:03:06.766Z,968.8100
2022-12-01T03:04:09.066Z,968.8300
2022-12-01T03:05:11.395Z,968.8100
2022-12-01T03:06:13.638Z,968.8300
2022-12-01T03:07:13.788Z,968.7900
2022-12-01T03:08:16.091Z,968.7700
2022-12-01T03:09:18.417Z,968.7900
2022-12-01T03:10:20.789Z,968.7900
2022-12-01T03:11:23.072Z,968.7900
2022-12-01T03:12:25.395Z,968.7900
2022-12-01T03:13:25.538Z,968.7900
2022-12-01T03:14:27.832Z,968.7900
2022-12-01T03:15:30.191Z,968.7900
2022-12-01T03:16:32.543Z,968.7700
2022-12-01T03:17:34.700Z,968.7900
2022-12-01T03:18:37.038Z,968.7700
2022-12-01T03:19:37.236Z,968.7600
2022-12-01T03:20:39.650Z,968.7600
2022-12-01T03:21:41.935Z,968.7700
2022-12-01T03:22:44.296Z,968.7600
2022-12-01T03:23:46.628Z,968.7600
2022-12-01T03:24:46.825Z,968.7400
2022-12-01T03:25:49.190Z,968.7200
2022-12-01T03:26:51.494Z,968.7600
2022-12-01T03:28:19.843Z,968.7400
2022-12-01T03:28:56.114Z,968.7400
2022-12-01T03:29:58.385Z,968.7200
2022-12-01T03:30:58.652Z,968.7000
2022-12-01T03:32:00.721Z,968.7000
2022-12-01T03:33:02.994Z,968.6800
2022-12-01T03:34:05.264Z,968.7000
2022-12-01T03:35:07.522Z,968.6800
2022-12-01T03:36:07.653Z,968.6800
2022-12-01T03:37:09.906Z,968.7000
2022-12-01T03:38:12.201Z,968.7000
2022-12-01T03:39:14.485Z,968.7000
2022-12-01T03:40:14.645Z,968.7200
2022-12-01T03:41:17.003Z,968.7200
2022-12-01T03:42:17.131Z,968.7200
2022-12-01T03:43:19.439Z,968.7600
2022-12-01T03:44:21.743Z,968.7600
2022-12-01T03:45:24.035Z,968.7700
2022-12-01T03:46:26.398Z,968.7600
2022-12-01T03:47:28.642Z,968.7600
2022-12-01T03:48:30.897Z,968.7400
2022-12-01T03:49:31.069Z,968.7700
2022-12-01T03:50:33.371Z,968.7400
2022-12-01T03:51:35.722Z,968.7400
2022-12-01T03:52:37.977Z,968.7400
2022-12-01T03:53:40.271Z,968.7600
2022-12-01T03:54:42.595Z,968.7600
2022-12-01T03:55:42.752Z,968.7900
2022-12-01T03:56:45.103Z,968.7700
2022-12-01T03:57:47.403Z,968.7700
2022-12-01T03:58:49.731Z,968.7900
2022-12-01T03:59:52.015Z,968.8100
2022-12-01T04:00:54.309Z,968.8100
2022-12-01T04:01:54.630Z,968.8100
2022-12-01T04:02:56.816Z,968.8100
2022-12-01T04:03:59.034Z,968.8300
2022-12-01T04:05:01.340Z,968.8100
2022-12-01T04:06:03.627Z,968.7900
2022-12-01T04:07:05.977Z,968.7900
2022-12-01T04:08:08.269Z,968.8100
2022-12-01T04:09:08.338Z,968.8100
2022-12-01T04:10:10.628Z,968.8100
2022-12-01T04:11:12.907Z,968.8100
2022-12-01T04:12:15.362Z,968.8100
2022-12-01T04:13:17.568Z,968.8300
2022-12-01T04:14:19.895Z,968.8300
2022-12-01T04:15:20.094Z,968.8500
2022-12-01T04:16:22.493Z,968.8500
2022-12-01T04:17:24.844Z,968.8900
2022-12-01T04:18:27.105Z,968.8500
2022-12-01T04:19:27.260Z,968.8900
2022-12-01T04:21:12.577Z,968.8300
2022-12-01T04:22:14.848Z,968.8300
2022-12-01T04:23:17.138Z,968.8300
2022-12-01T04:24:19.396Z,968.8100
2022-12-01T04:26:04.728Z,968.8100
2022-12-01T04:27:06.890Z,968.7900
2022-12-01T04:28:09.169Z,968.8100
2022-12-01T04:29:11.417Z,968.8300
2022-12-01T04:30:13.644Z,968.8700
2022-12-01T04:31:13.781Z,968.8500
2022-12-01T04:32:16.045Z,968.8300
2022-12-01T04:33:18.353Z,968.8700
2022-12-01T04:34:20.698Z,968.8900
2022-12-01T04:35:22.969Z,968.8900
2022-12-01T04:36:25.292Z,968.8700
2022-12-01T04:37:25.478Z,968.8500
2022-12-01T04:38:30.920Z,968.9100
2022-12-01T04:39:30.110Z,968.8700
2022-12-01T04:40:32.409Z,968.8900
2022-12-01T04:41:34.723Z,968.9100
2022-12-01T04:42:34.901Z,968.9300
2022-12-01T04:43:37.224Z,968.9500
2022-12-01T04:44:39.577Z,968.9500
2022-12-01T04:45:41.852Z,968.9300
2022-12-01T04:46:44.278Z,968.9300
2022-12-01T04:47:46.490Z,968.9500
2022-12-01T04:48:46.676Z,968.9900
2022-12-01T04:49:49.489Z,968.9900
2022-12-01T04:50:51.332Z,968.9700
2022-12-01T04:51:53.638Z,968.9700
2022-12-01T04:52:55.984Z,968.9900
2022-12-01T04:53:58.255Z,968.9900
2022-12-01T04:54:58.374Z,969.0100
2022-12-01T04:56:00.574Z,968.9900
2022-12-01T04:57:02.814Z,969.0300
2022-12-01T04:58:05.014Z,969.0500
2022-12-01T04:59:07.245Z,968.9900
2022-12-01T05:00:09.616Z,969.0300
2022-12-01T05:01:11.876Z,969.0100
2022-12-01T05:02:14.053Z,969.0100
2022-12-01T05:03:16.275Z,968.9900
2022-12-01T05:04:16.410Z,968.9900
2022-12-01T05:05:18.822Z,968.9900
2022-12-01T05:06:20.897Z,968.9900
2022-12-01T05:07:23.208Z,968.9700
2022-12-01T05:08:25.393Z,968.9900
2022-12-01T05:09:27.645Z,968.9700
2022-12-01T05:10:29.965Z,968.9700
2022-12-01T05:11:32.239Z,968.9900
2022-12-01T05:12:34.513Z,968.9900
2022-12-01T05:13:34.641Z,968.9900
2022-12-01T05:14:36.910Z,968.9300
2022-12-01T05:15:39.265Z,968.9500
2022-12-01T05:16:41.481Z,968.9300
2022-12-01T05:17:43.677Z,968.9500
2022-12-01T05:18:46.006Z,968.9300
2022-12-01T05:19:48.665Z,968.9700
2022-12-01T05:20:50.620Z,969.0100
2022-12-01T05:21:50.634Z,969.0100
2022-12-01T05:23:07.571Z,969.0100
2022-12-01T05:23:55.225Z,969.0300
2022-12-01T05:24:57.516Z,969.0500
2022-12-01T05:25:59.846Z,969.0500
2022-12-01T05:27:02.113Z,969.0500
2022-12-01T05:28:04.397Z,969.0500
2022-12-01T05:29:04.525Z,969.0700
2022-12-01T05:30:06.827Z,969.0500
2022-12-01T05:31:09.335Z,969.0300
2022-12-01T05:32:11.442Z,969.0300
2022-12-01T05:33:13.745Z,969.0300
2022-12-01T05:34:16.039Z,969.0500
2022-12-01T05:35:16.201Z,969.0300
2022-12-01T05:36:18.474Z,969.0500
2022-12-01T05:37:20.731Z,969.0700
2022-12-01T05:38:22.982Z,969.0700
2022-12-01T05:39:25.318Z,969.0500
2022-12-01T05:40:27.643Z,969.0700
2022-12-01T05:41:27.984Z,969.0500
2022-12-01T05:42:30.223Z,969.0700
2022-12-01T05:43:32.582Z,969.0300
2022-12-01T05:44:34.936Z,969.0500
2022-12-01T05:45:35.211Z,969.0300
2022-12-01T05:46:37.451Z,969.0300
2022-12-01T05:47:39.765Z,969.0100
2022-12-01T05:48:42.110Z,969.0300
2022-12-01T05:49:44.473Z,969.0500
2022-12-01T05:50:44.668Z,969.0700
2022-12-01T05:51:47.068Z,969.0700
2022-12-01T05:52:49.349Z,969.0700
2022-12-01T05:53:51.711Z,969.0500
2022-12-01T05:54:54.075Z,969.0700
2022-12-01T05:55:56.398Z,969.0500
2022-12-01T05:56:56.655Z,969.0700
2022-12-01T05:57:58.794Z,969.0500
2022-12-01T05:59:01.080Z,969.0500
2022-12-01T06:00:03.392Z,969.0300
2022-12-01T06:01:05.702Z,969.0500
2022-12-01T06:02:08.098Z,969.0500
2022-12-01T06:03:08.183Z,969.0500
2022-12-01T06:04:10.557Z,969.0500
2022-12-01T06:05:12.803Z,969.0500
2022-12-01T06:06:15.124Z,969.0500
2022-12-01T06:07:17.416Z,969.0300
2022-12-01T06:08:19.688Z,969.0700
2022-12-01T06:09:21.945Z,969.0500
2022-12-01T06:10:22.154Z,969.0500
2022-12-01T06:12:42.040Z,969.0500
2022-12-01T06:13:44.161Z,969.0700
2022-12-01T06:14:44.290Z,969.0700
2022-12-01T06:15:46.622Z,969.0700
2022-12-01T06:16:48.962Z,969.0900
2022-12-01T06:17:53.423Z,969.0700
2022-12-01T06:18:47.133Z,969.1100
2022-12-01T06:19:47.808Z,969.1100
2022-12-01T06:20:49.617Z,969.1100
2022-12-01T06:21:51.935Z,969.1100
2022-12-01T06:22:54.246Z,969.1300
2022-12-01T06:23:56.514Z,969.0900
2022-12-01T06:24:58.820Z,969.1100
2022-12-01T06:25:58.974Z,969.1100
2022-12-01T06:27:01.244Z,969.1100
2022-12-01T06:28:03.707Z,969.1300
2022-12-01T06:29:05.899Z,969.1500
2022-12-01T06:30:08.217Z,969.1700
2022-12-01T06:31:10.546Z,969.2100
2022-12-01T06:32:12.800Z,969.1900
2022-12-01T06:33:12.878Z,969.2100
2022-12-01T06:34:15.120Z,969.2100
2022-12-01T06:35:17.389Z,969.2100
2022-12-01T06:36:19.629Z,969.2300
2022-12-01T06:37:21.876Z,969.2300
2022-12-01T06:38:24.208Z,969.2100
2022-12-01T06:39:26.414Z,969.2100
2022-12-01T06:40:28.673Z,969.2100
2022-12-01T06:41:28.769Z,969.2400
2022-12-01T06:42:31.032Z,969.2400
2022-12-01T06:43:33.341Z,969.2600
2022-12-01T06:44:35.551Z,969.3000
2022-12-01T06:45:37.796Z,969.2800
2022-12-01T06:46:40.083Z,969.2800
2022-12-01T06:47:42.258Z,969.2600
2022-12-01T06:48:44.783Z,969.2800
2022-12-01T06:49:47.242Z,969.3000
2022-12-01T06:50:49.115Z,969.3000
2022-12-01T06:51:49.250Z,969.3200
2022-12-01T06:52:51.552Z,969.3000
2022-12-01T06:53:53.828Z,969.3400
2022-12-01T06:54:56.079Z,969.3400
2022-12-01T06:55:58.338Z,969.3600
2022-12-01T06:57:00.647Z,969.3600
2022-12-01T06:58:02.895Z,969.3800
2022-12-01T06:59:03.068Z,969.3600
2022-12-01T07:00:05.311Z,969.3800
2022-12-01T07:01:07.673Z,969.3800
2022-12-01T07:02:09.939Z,969.4000
2022-12-01T07:03:12.182Z,969.4000
2022-12-01T07:04:14.586Z,969.4000
2022-12-01T07:05:16.730Z,969.4000
2022-12-01T07:06:16.841Z,969.4000
2022-12-01T07:07:19.125Z,969.4200
2022-12-01T07:08:21.386Z,969.4200
2022-12-01T07:09:23.702Z,969.4600
2022-12-01T07:10:25.932Z,969.4600
2022-12-01T07:11:28.460Z,969.4600
2022-12-01T07:12:30.621Z,969.5000
2022-12-01T07:13:33.826Z,969.5200
2022-12-01T07:14:33.082Z,969.4800
2022-12-01T07:15:35.311Z,969.5000
2022-12-01T07:16:37.640Z,969.4800
2022-12-01T07:17:39.854Z,969.5200
2022-12-01T07:18:42.084Z,969.5200
2022-12-01T07:19:44.507Z,969.5200
2022-12-01T07:20:46.660Z,969.5200
2022-12-01T07:21:46.817Z,969.4800
2022-12-01T07:22:49.078Z,969.5400
2022-12-01T07:23:51.410Z,969.5400
2022-12-01T07:24:53.730Z,969.5200
2022-12-01T07:25:56.024Z,969.5200
2022-12-01T07:26:58.317Z,969.6400
2022-12-01T07:27:58.494Z,969.6400
2022-12-01T07:29:00.795Z,969.6400
2022-12-01T07:30:03.198Z,969.6600
2022-12-01T07:31:05.612Z,969.6200
2022-12-01T07:32:07.847Z,969.6200
2022-12-01T07:33:08.031Z,969.5400
2022-12-01T07:34:10.303Z,969.6200
2022-12-01T07:36:08.562Z,969.6200
2022-12-01T07:37:10.751Z,969.6200
2022-12-01T07:38:16.552Z,969.6200
2022-12-01T07:39:15.246Z,969.6200
2022-12-01T07:40:17.518Z,969.6200
2022-12-01T07:41:19.923Z,969.6200
2022-12-01T07:42:19.931Z,969.6600
2022-12-01T07:43:24.344Z,969.6400
2022-12-01T07:44:13.732Z,969.6800
2022-12-01T07:45:15.951Z,969.6800
2022-12-01T07:46:22.817Z,969.7000
2022-12-01T07:47:20.505Z,969.7200
2022-12-01T07:48:22.739Z,969.7200
2022-12-01T07:49:22.813Z,969.7000
2022-12-01T07:50:25.035Z,969.7000
2022-12-01T07:51:27.315Z,969.7000
2022-12-01T07:52:29.643Z,969.7200
2022-12-01T07:53:31.906Z,969.7200
2022-12-01T07:54:34.208Z,969.7200
2022-12-01T07:55:36.503Z,969.7200
2022-12-01T07:56:38.795Z,969.7200
2022-12-01T07:57:39.095Z,969.7400
2022-12-01T07:58:41.361Z,969.7400
2022-12-01T07:59:43.720Z,969.7400
2022-12-01T08:00:45.983Z,969.7400
2022-12-01T08:01:48.405Z,969.7600
2022-12-01T08:02:48.684Z,969.7400
2022-12-01T08:03:50.929Z,969.7400
2022-12-01T08:04:53.296Z,969.7800
2022-12-01T08:05:55.637Z,969.7600
2022-12-01T08:06:57.996Z,969.8000
2022-12-01T08:07:58.494Z,969.7800
2022-12-01T08:09:00.586Z,969.7600
2022-12-01T08:10:02.911Z,969.7600
2022-12-01T08:11:05.216Z,969.7800
2022-12-01T08:12:07.572Z,969.7800
2022-12-01T08:13:09.852Z,969.7600
2022-12-01T08:14:10.069Z,969.7600
2022-12-01T08:15:12.395Z,969.7400
2022-12-01T08:16:14.772Z,969.7400
2022-12-01T08:17:16.997Z,969.7400
2022-12-01T08:18:17.337Z,969.7200
2022-12-01T08:19:19.584Z,969.6400
2022-12-01T08:20:24.081Z,969.5000
2022-12-01T08:21:24.315Z,969.5000
2022-12-01T08:22:26.690Z,969.5400
2022-12-01T08:23:26.991Z,969.5200
2022-12-01T08:24:29.317Z,969.5400
2022-12-01T08:25:31.689Z,969.6800
2022-12-01T08:26:34.031Z,969.6800
2022-12-01T08:27:34.225Z,969.6600
2022-12-01T08:28:36.666Z,969.6600
2022-12-01T08:29:38.929Z,969.6800
2022-12-01T08:30:41.290Z,969.6800
2022-12-01T08:31:43.593Z,969.6800
2022-12-01T08:32:43.834Z,969.6800
2022-12-01T08:33:46.260Z,969.7000
2022-12-01T08:34:53.321Z,969.7000
2022-12-01T08:35:50.979Z,969.7200
2022-12-01T08:36:53.346Z,969.6800
2022-12-01T08:37:53.556Z,969.7000
2022-12-01T08:38:55.971Z,969.7200
2022-12-01T08:39:58.309Z,969.7000
2022-12-01T08:41:00.672Z,969.7200
2022-12-01T08:42:00.907Z,969.6800
2022-12-01T08:43:03.277Z,969.7000
2022-12-01T08:44:05.667Z,969.7000
2022-12-01T08:45:07.939Z,969.7000
2022-12-01T08:47:31.944Z,969.6800
2022-12-01T08:48:34.159Z,969.7200
2022-12-01T08:49:34.303Z,969.7200
2022-12-01T08:50:36.613Z,969.7200
2022-12-01T08:51:38.905Z,969.7200
2022-12-01T08:52:41.235Z,969.7200
2022-12-01T08:53:45.697Z,969.7200
2022-12-01T08:54:43.875Z,969.7200
2022-12-01T08:55:46.057Z,969.7400
2022-12-01T08:56:48.402Z,969.7400
2022-12-01T08:57:50.740Z,969.7400
2022-12-01T08:58:50.950Z,969.7400
2022-12-01T08:59:54.624Z,969.7400
2022-12-01T09:00:53.484Z,969.7200
2022-12-01T09:01:55.764Z,969.7400
2022-12-01T09:02:58.131Z,969.7600
2022-12-01T09:04:00.319Z,969.7600
2022-12-01T09:05:02.868Z,969.7600
2022-12-01T09:06:05.001Z,969.7200
2022-12-01T09:07:05.227Z,969.7600
2022-12-01T09:08:07.624Z,969.7400
2022-12-01T09:09:09.903Z,969.7600
2022-12-01T09:10:12.254Z,969.8000
2022-12-01T09:11:14.520Z,969.7800
2022-12-01T09:12:14.650Z,969.8200
2022-12-01T09:13:16.889Z,969.8000
2022-12-01T09:14:19.131Z,969.8000
2022-12-01T09:15:21.437Z,969.8000
2022-12-01T09:16:23.881Z,969.8200
2022-12-01T09:17:25.963Z,969.7800
2022-12-01T09:18:28.235Z,969.8500
2022-12-01T09:19:30.525Z,969.8500
2022-12-01T09:20:30.803Z,969.8200
2022-12-01T09:21:32.942Z,969.8400
2022-12-01T09:22:35.226Z,969.8700
2022-12-01T09:23:37.534Z,969.8700
2022-12-01T09:24:39.824Z,969.9100
2022-12-01T09:25:42.418Z,969.9100
2022-12-01T09:26:42.224Z,969.8900
2022-12-01T09:27:44.522Z,969.8900
2022-12-01T09:28:46.814Z,969.8900
2022-12-01T09:29:49.413Z,969.8700
2022-12-01T09:30:51.439Z,969.9100
2022-12-01T09:31:53.798Z,969.8700
2022-12-01T09:32:56.058Z,969.8900
2022-12-01T09:33:56.247Z,969.8900
2022-12-01T09:34:58.538Z,969.8900
2022-12-01T09:36:00.861Z,969.9100
2022-12-01T09:37:03.145Z,969.9300
2022-12-01T09:38:05.447Z,969.9100
2022-12-01T09:39:07.802Z,969.8700
2022-12-01T09:40:08.005Z,969.9100
2022-12-01T09:41:10.833Z,969.9100
2022-12-01T09:42:12.691Z,969.9100
2022-12-01T09:43:14.998Z,969.9100
2022-12-01T09:44:17.359Z,969.8900
2022-12-01T09:45:17.553Z,969.8900
2022-12-01T09:46:19.996Z,969.9100
2022-12-01T09:47:22.236Z,969.8900
2022-12-01T09:48:24.579Z,969.8700
2022-12-01T09:49:26.933Z,969.8700
2022-12-01T09:50:27.154Z,969.8900
2022-12-01T09:51:29.561Z,969.8500
2022-12-01T09:52:31.887Z,969.8900
2022-12-01T09:53:34.252Z,969.8900
2022-12-01T09:54:36.626Z,969.8900
2022-12-01T09:55:36.811Z,969.8700
2022-12-01T09:56:39.156Z,969.8900
2022-12-01T09:57:41.406Z,969.8500
2022-12-01T09:58:43.696Z,969.8500
2022-12-01T09:59:46.162Z,969.8700
2022-12-01T10:00:46.244Z,969.8400
2022-12-01T10:01:48.771Z,969.8400
2022-12-01T10:02:50.889Z,969.8200
2022-12-01T10:03:53.139Z,969.8200
2022-12-01T10:04:55.514Z,969.8000
2022-12-01T10:06:25.979Z,969.8200
2022-12-01T10:06:58.059Z,969.8200
2022-12-01T10:08:00.421Z,969.7800
2022-12-01T10:09:02.619Z,969.7800
2022-12-01T10:10:04.925Z,969.7800
2022-12-01T10:11:07.232Z,969.7400
2022-12-01T10:12:09.627Z,969.7400
2022-12-01T10:13:09.658Z,969.7400
2022-12-01T10:14:15.155Z,969.7000
2022-12-01T10:16:46.815Z,969.6800
2022-12-01T10:17:49.109Z,969.6600
2022-12-01T10:18:49.247Z,969.6800
2022-12-01T10:19:51.844Z,969.6400
2022-12-01T10:20:53.829Z,969.6400
2022-12-01T10:21:56.155Z,969.6400
2022-12-01T10:22:58.573Z,969.6200
2022-12-01T10:24:00.739Z,969.6200
2022-12-01T10:25:03.056Z,969.5200
2022-12-01T10:26:03.229Z,969.5200
2022-12-01T10:27:05.550Z,969.5000
2022-12-01T10:28:07.912Z,969.5000
2022-12-01T10:29:10.228Z,969.5000
2022-12-01T10:30:12.538Z,969.4400
2022-12-01T10:31:12.765Z,969.4000
2022-12-01T10:32:15.015Z,969.4000
2022-12-01T10:33:17.471Z,969.3600
2022-12-01T10:34:19.720Z,969.3600
2022-12-01T10:35:22.031Z,969.3600
2022-12-01T10:36:24.381Z,969.3600
2022-12-01T10:37:24.725Z,969.3400
2022-12-01T10:38:26.979Z,969.3800
2022-12-01T10:39:29.293Z,969.3600
2022-12-01T10:40:31.637Z,969.3400
2022-12-01T10:41:33.986Z,969.3400
2022-12-01T10:42:34.185Z,969.3600
2022-12-01T10:43:36.536Z,969.3200
2022-12-01T10:44:38.807Z,969.3400
2022-12-01T10:45:41.170Z,969.3200
2022-12-01T10:46:43.495Z,969.3400
2022-12-01T10:47:43.689Z,969.3000
2022-12-01T10:48:46.080Z,969.3200
2022-12-01T10:49:48.822Z,969.3600
2022-12-01T10:50:50.745Z,969.3200
2022-12-01T10:51:53.106Z,969.3200
2022-12-01T10:52:55.433Z,969.3200
2022-12-01T10:53:56.760Z,969.3200
2022-12-01T10:54:57.988Z,969.3000
2022-12-01T10:55:58.193Z,969.2600
2022-12-01T10:57:00.424Z,969.2400
2022-12-01T10:58:07.729Z,969.2400
2022-12-01T10:59:05.146Z,969.2400
2022-12-01T11:00:07.314Z,969.2300
2022-12-01T11:01:09.725Z,969.2300
2022-12-01T11:02:12.109Z,969.2300
2022-12-01T11:03:15.682Z,969.2400
2022-12-01T11:04:14.310Z,969.2400
2022-12-01T11:05:16.628Z,969.2300
2022-12-01T11:06:18.905Z,969.2300
2022-12-01T11:07:21.207Z,969.2400
2022-12-01T11:08:23.481Z,969.2300
2022-12-01T11:09:26.526Z,969.2100
2022-12-01T11:10:25.916Z,969.2300
2022-12-01T11:11:28.175Z,969.2300
2022-12-01T11:12:30.475Z,969.2100
2022-12-01T11:13:32.747Z,969.2300
2022-12-01T11:14:35.101Z,969.2300
2022-12-01T11:15:37.389Z,969.2300
2022-12-01T11:16:39.767Z,969.2100
2022-12-01T11:17:39.880Z,969.2100
2022-12-01T11:18:42.245Z,969.1900
2022-12-01T11:19:44.613Z,969.1900
2022-12-01T11:20:46.833Z,969.1900
2022-12-01T11:21:49.034Z,969.2100
2022-12-01T11:22:51.330Z,969.1900
2022-12-01T11:23:51.483Z,969.1700
2022-12-01T11:24:53.880Z,969.1700
2022-12-01T11:25:56.072Z,969.1700
2022-12-01T11:26:58.383Z,969.1700
2022-12-01T11:28:00.699Z,969.1500
2022-12-01T11:29:03.154Z,969.1500
2022-12-01T11:30:04.243Z,969.1500
2022-12-01T11:31:05.456Z,969.1300
2022-12-01T11:32:07.748Z,969.1500
2022-12-01T11:33:09.934Z,969.1500
2022-12-01T11:34:12.210Z,969.1100
2022-12-01T11:35:14.541Z,969.1300
2022-12-01T11:36:16.802Z,969.1100
2022-12-01T11:37:16.938Z,969.1300
2022-12-01T11:38:34.634Z,969.1100
2022-12-01T11:39:21.526Z,969.1100
2022-12-01T11:40:23.827Z,969.1100
2022-12-01T11:42:56.451Z,969.1100
2022-12-01T11:44:01.842Z,969.1300
2022-12-01T11:45:00.837Z,969.1300
2022-12-01T11:46:03.262Z,969.1300
2022-12-01T11:47:22.130Z,969.1500
2022-12-01T11:48:07.518Z,969.1500
2022-12-01T11:49:09.779Z,969.1100
2022-12-01T11:50:12.033Z,969.1300
2022-12-01T11:51:12.130Z,969.1300
2022-12-01T11:52:14.385Z,969.1300
2022-12-01T11:53:16.613Z,969.1300
2022-12-01T11:54:18.867Z,969.1100
2022-12-01T11:55:21.131Z,969.1100
2022-12-01T11:56:23.628Z,969.1300
2022-12-01T11:57:34.263Z,969.1300
2022-12-01T11:58:27.838Z,969.1100
2022-12-01T11:59:30.070Z,969.0900
2022-12-01T12:00:32.332Z,969.1100
2022-12-01T12:01:32.503Z,969.0500
2022-12-01T12:02:34.713Z,969.0300
2022-12-01T12:03:36.971Z,969.0300
2022-12-01T12:04:39.226Z,969.0300
2022-12-01T12:05:41.500Z,969.0300
2022-12-01T12:06:43.791Z,969.0300
2022-12-01T12:07:46.219Z,969.0500
2022-12-01T12:08:48.442Z,969.0900
2022-12-01T12:09:48.881Z,969.0300
2022-12-01T12:10:50.832Z,969.0500
2022-12-01T12:11:53.131Z,969.0700
2022-12-01T12:12:55.408Z,969.0700
2022-12-01T12:13:57.725Z,969.0500
2022-12-01T12:15:00.053Z,969.0700
2022-12-01T12:16:00.219Z,969.1100